createdAt,value
2023-01-10T00:01:53.483Z,0.43
2023-01-10T00:04:20.391Z,0.93
2023-01-10T00:06:47.181Z,0.73
2023-01-10T00:09:14.024Z,0.80
2023-01-10T00:11:59.682Z,0.77
2023-01-10T00:14:29.904Z,1.45
2023-01-10T00:16:57.295Z,0.45
2023-01-10T00:19:24.174Z,0.60
2023-01-10T00:21:50.959Z,0.40
2023-01-10T00:24:21.687Z,0.55
2023-01-10T00:26:54.197Z,0.30
2023-01-10T00:29:24.070Z,1.05
2023-01-10T00:31:50.876Z,0.50
2023-01-10T00:34:17.758Z,0.50
2023-01-10T00:36:45.680Z,0.40
2023-01-10T00:39:12.537Z,0.73
2023-01-10T00:42:15.787Z,2.05
2023-01-10T00:44:42.708Z,0.57
2023-01-10T00:47:09.448Z,0.65
2023-01-10T00:49:36.258Z,0.70
2023-01-10T00:52:03.119Z,0.98
2023-01-10T00:54:29.875Z,0.45
2023-01-10T00:56:56.902Z,0.55
2023-01-10T00:59:24.249Z,0.55
2023-01-10T01:01:52.208Z,0.50
2023-01-10T01:04:19.153Z,0.50
2023-01-10T01:06:47.674Z,0.55
2023-01-10T01:09:14.881Z,0.93
2023-01-10T01:11:41.690Z,0.32
2023-01-10T01:14:09.101Z,0.38
2023-01-10T01:16:35.874Z,0.85
2023-01-10T01:19:02.700Z,0.95
2023-01-10T01:21:29.543Z,0.63
2023-01-10T01:23:59.536Z,1.02
2023-01-10T01:26:26.750Z,0.75
2023-01-10T01:28:53.577Z,0.68
2023-01-10T01:31:20.406Z,0.70
2023-01-10T01:33:48.382Z,0.93
2023-01-10T01:36:15.182Z,0.20
2023-01-10T01:38:42.368Z,1.20
2023-01-10T01:41:29.611Z,0.60
2023-01-10T01:44:35.701Z,0.65
2023-01-10T01:47:20.525Z,0.55
2023-01-10T01:49:47.909Z,0.40
2023-01-10T01:52:26.979Z,1.45
2023-01-10T01:54:57.985Z,0.75
2023-01-10T01:57:27.176Z,0.68
2023-01-10T01:59:55.444Z,1.00
2023-01-10T02:02:32.050Z,0.80
2023-01-10T02:05:09.357Z,0.52
2023-01-10T02:07:38.809Z,0.77
2023-01-10T02:10:11.115Z,0.82
2023-01-10T02:12:39.581Z,0.82
2023-01-10T02:15:08.319Z,0.68
2023-01-10T02:17:35.069Z,0.75
2023-01-10T02:20:11.365Z,1.40
2023-01-10T02:23:14.941Z,0.82
2023-01-10T02:26:04.192Z,1.65
2023-01-10T02:28:56.702Z,0.90
2023-01-10T02:31:50.986Z,2.25
2023-01-10T02:34:29.632Z,1.35
2023-01-10T02:37:31.712Z,0.73
2023-01-10T02:40:21.099Z,0.50
2023-01-10T02:43:03.119Z,1.02
2023-01-10T02:45:36.730Z,0.93
2023-01-10T02:48:03.756Z,0.93
2023-01-10T02:50:43.042Z,3.42
2023-01-10T02:53:30.091Z,1.00
2023-01-10T02:56:22.512Z,1.40
2023-01-10T02:59:23.123Z,3.72
2023-01-10T03:02:27.207Z,1.00
2023-01-10T03:05:22.363Z,0.43
2023-01-10T03:08:07.865Z,0.70
2023-01-10T03:10:51.901Z,1.08
2023-01-10T03:13:43.455Z,0.63
2023-01-10T03:16:15.624Z,0.80
2023-01-10T03:18:56.492Z,0.90
2023-01-10T03:21:24.621Z,0.73
2023-01-10T03:23:56.653Z,0.60
2023-01-10T03:26:53.822Z,0.70
2023-01-10T03:32:05.964Z,0.68
2023-01-10T03:34:33.620Z,1.88
2023-01-10T03:37:14.007Z,0.82
2023-01-10T03:39:57.321Z,1.30
2023-01-10T03:42:57.893Z,2.03
2023-01-10T03:45:35.527Z,1.25
2023-01-10T03:48:04.562Z,0.70
2023-01-10T03:50:32.719Z,0.32
2023-01-10T03:53:00.207Z,0.93
2023-01-10T03:55:28.869Z,0.65
2023-01-10T03:57:55.706Z,0.73
2023-01-10T04:00:22.667Z,0.80
2023-01-10T04:02:49.693Z,1.23
2023-01-10T04:05:16.515Z,1.73
2023-01-10T04:07:43.291Z,0.80
2023-01-10T04:10:10.677Z,0.82
2023-01-10T04:12:37.453Z,1.42
2023-01-10T04:15:04.803Z,0.77
2023-01-10T04:17:31.641Z,0.70
2023-01-10T04:19:58.412Z,1.75
2023-01-10T04:22:25.285Z,0.95
2023-01-10T04:24:52.203Z,1.05
2023-01-10T04:27:19.317Z,1.40
2023-01-10T04:29:46.625Z,1.38
2023-01-10T04:32:13.475Z,1.25
2023-01-10T04:34:40.353Z,1.15
2023-01-10T04:37:07.196Z,0.77
2023-01-10T04:39:34.195Z,0.40
2023-01-10T04:42:01.009Z,0.65
2023-01-10T04:44:27.758Z,0.32
2023-01-10T04:46:54.896Z,1.08
2023-01-10T04:49:22.011Z,1.10
2023-01-10T04:51:48.819Z,0.77
2023-01-10T04:54:19.277Z,1.38
2023-01-10T04:56:46.061Z,0.50
2023-01-10T04:59:12.801Z,0.70
2023-01-10T05:01:39.654Z,1.38
2023-01-10T05:04:07.405Z,1.13
2023-01-10T05:06:34.294Z,0.73
2023-01-10T05:09:01.375Z,0.82
2023-01-10T05:11:28.211Z,0.32
2023-01-10T05:13:55.038Z,0.95
2023-01-10T05:16:22.124Z,0.45
2023-01-10T05:18:49.027Z,0.82
2023-01-10T05:21:15.875Z,0.47
2023-01-10T05:23:43.307Z,0.60
2023-01-10T05:26:13.535Z,1.38
2023-01-10T05:28:41.581Z,0.40
2023-01-10T05:31:11.259Z,0.43
2023-01-10T05:33:39.072Z,0.60
2023-01-10T05:36:07.195Z,1.08
2023-01-10T05:38:34.414Z,0.40
2023-01-10T05:41:01.755Z,0.82
2023-01-10T05:43:29.385Z,1.98
2023-01-10T05:45:56.209Z,0.70
2023-01-10T05:48:23.731Z,0.82
2023-01-10T05:50:52.698Z,0.50
2023-01-10T05:53:20.011Z,1.40
2023-01-10T05:55:57.121Z,0.40
2023-01-10T05:58:24.816Z,1.02
2023-01-10T06:00:51.908Z,0.95
2023-01-10T06:03:19.114Z,0.63
2023-01-10T06:05:48.660Z,0.95
2023-01-10T06:08:16.375Z,1.73
2023-01-10T06:10:43.566Z,0.30
2023-01-10T06:13:12.060Z,1.30
2023-01-10T06:15:39.303Z,1.25
2023-01-10T06:18:07.146Z,0.88
2023-01-10T06:20:34.017Z,0.98
2023-01-10T06:23:04.536Z,0.82
2023-01-10T06:25:32.541Z,0.60
2023-01-10T06:27:59.356Z,0.98
2023-01-10T06:30:26.127Z,0.93
2023-01-10T06:32:52.931Z,1.00
2023-01-10T06:35:19.692Z,1.35
2023-01-10T06:37:46.849Z,0.93
2023-01-10T06:40:13.727Z,1.10
2023-01-10T06:42:41.399Z,1.05
2023-01-10T06:45:08.828Z,0.80
2023-01-10T06:47:35.726Z,0.93
2023-01-10T06:50:02.521Z,1.38
2023-01-10T06:52:30.090Z,0.57
2023-01-10T06:54:57.149Z,0.95
2023-01-10T06:57:23.948Z,0.68
2023-01-10T06:59:50.765Z,1.13
2023-01-10T07:02:17.734Z,1.48
2023-01-10T07:04:44.510Z,1.45
2023-01-10T07:07:11.491Z,1.20
2023-01-10T07:09:38.298Z,1.02
2023-01-10T07:12:05.322Z,0.90
2023-01-10T07:14:32.385Z,0.57
2023-01-10T07:16:59.199Z,1.65
2023-01-10T07:19:26.012Z,0.82
2023-01-10T07:21:53.531Z,1.05
2023-01-10T07:24:20.331Z,0.45
2023-01-10T07:26:47.096Z,0.80
2023-01-10T07:29:13.883Z,1.08
2023-01-10T07:31:40.770Z,1.02
2023-01-10T07:34:07.715Z,0.63
2023-01-10T07:36:38.475Z,0.68
2023-01-10T07:39:06.345Z,0.57
2023-01-10T07:41:33.113Z,0.93
2023-01-10T07:43:59.934Z,0.57
2023-01-10T07:46:26.832Z,0.98
2023-01-10T07:48:53.692Z,1.00
2023-01-10T07:51:20.542Z,1.60
2023-01-10T07:53:47.438Z,1.50
2023-01-10T07:56:14.275Z,0.57
2023-01-10T07:58:41.688Z,0.68
2023-01-10T08:01:08.532Z,0.65
2023-01-10T08:03:35.806Z,0.68
2023-01-10T08:06:05.422Z,0.65
2023-01-10T08:08:34.483Z,1.23
2023-01-10T08:11:02.667Z,1.42
2023-01-10T08:13:30.202Z,0.73
2023-01-10T08:15:57.403Z,0.73
2023-01-10T08:18:25.378Z,0.68
2023-01-10T08:20:53.401Z,0.82
2023-01-10T08:23:20.849Z,1.35
2023-01-10T08:25:48.199Z,1.30
2023-01-10T08:28:15.218Z,1.95
2023-01-10T08:30:42.272Z,0.90
2023-01-10T08:33:10.481Z,1.83
2023-01-10T08:35:42.122Z,1.75
2023-01-10T08:38:10.614Z,1.58
2023-01-10T08:40:37.815Z,1.10
2023-01-10T08:43:08.215Z,1.20
2023-01-10T08:45:35.471Z,2.10
2023-01-10T08:48:02.404Z,2.00
2023-01-10T08:50:30.119Z,1.13
2023-01-10T08:53:00.989Z,1.38
2023-01-10T08:55:29.009Z,2.50
2023-01-10T08:57:55.784Z,2.40
2023-01-10T09:00:23.099Z,1.55
2023-01-10T09:02:49.980Z,1.52
2023-01-10T09:05:32.248Z,1.65
2023-01-10T09:08:01.026Z,2.05
2023-01-10T09:10:31.013Z,1.40
2023-01-10T09:13:01.360Z,2.97
2023-01-10T09:15:33.717Z,2.03
2023-01-10T09:18:04.894Z,1.33
2023-01-10T09:20:32.813Z,2.25
2023-01-10T09:23:04.140Z,1.80
2023-01-10T09:25:30.941Z,1.92
2023-01-10T09:28:02.099Z,2.67
2023-01-10T09:30:29.921Z,1.75
2023-01-10T09:32:58.072Z,2.35
2023-01-10T09:35:26.606Z,1.58
2023-01-10T09:37:58.363Z,1.77
2023-01-10T09:40:37.380Z,2.00
2023-01-10T09:43:13.065Z,1.88
2023-01-10T09:45:51.723Z,3.63
2023-01-10T09:48:36.603Z,2.17
2023-01-10T09:51:34.710Z,2.50
2023-01-10T09:54:12.538Z,1.63
2023-01-10T09:56:40.740Z,1.75
2023-01-10T09:59:22.857Z,1.92
2023-01-10T10:01:59.077Z,1.95
2023-01-10T10:06:55.554Z,2.78
2023-01-10T10:09:28.619Z,3.88
2023-01-10T10:12:34.877Z,2.17
2023-01-10T10:15:13.364Z,1.48
2023-01-10T10:18:03.753Z,1.92
2023-01-10T10:20:57.529Z,2.45
2023-01-10T10:23:36.557Z,2.63
2023-01-10T10:26:17.831Z,2.17
2023-01-10T10:29:10.562Z,1.92
2023-01-10T10:31:57.640Z,2.92
2023-01-10T10:34:37.389Z,1.83
2023-01-10T10:37:17.973Z,2.55
2023-01-10T10:39:52.612Z,3.67
2023-01-10T10:42:20.077Z,3.03
2023-01-10T10:44:55.171Z,1.92
2023-01-10T10:47:24.103Z,2.08
2023-01-10T10:50:05.979Z,2.17
2023-01-10T10:52:36.123Z,2.33
2023-01-10T10:55:06.779Z,2.55
2023-01-10T10:57:38.736Z,2.25
2023-01-10T11:00:13.947Z,2.38
2023-01-10T11:02:48.078Z,3.90
2023-01-10T11:05:21.453Z,1.98
2023-01-10T11:07:49.777Z,1.90
2023-01-10T11:10:36.420Z,3.25
2023-01-10T11:15:42.677Z,2.38
2023-01-10T11:18:25.377Z,2.25
2023-01-10T11:21:00.292Z,1.73
2023-01-10T11:23:55.704Z,2.85
2023-01-10T11:26:34.586Z,4.07
2023-01-10T11:29:07.674Z,2.65
2023-01-10T11:31:37.052Z,3.08
2023-01-10T11:34:08.361Z,3.63
2023-01-10T11:37:00.233Z,2.45
2023-01-10T11:39:28.475Z,2.55
2023-01-10T11:41:56.065Z,1.73
2023-01-10T11:44:28.317Z,2.47
2023-01-10T11:47:05.531Z,3.05
2023-01-10T11:49:40.030Z,2.47
2023-01-10T11:52:20.731Z,2.83
2023-01-10T11:54:48.206Z,3.50
2023-01-10T11:57:21.821Z,3.05
2023-01-10T12:00:08.103Z,4.63
2023-01-10T12:02:39.836Z,2.05
2023-01-10T12:05:09.977Z,2.92
2023-01-10T12:07:58.599Z,2.38
2023-01-10T12:10:28.628Z,3.20
2023-01-10T12:12:59.199Z,3.47
2023-01-10T12:15:30.076Z,3.63
2023-01-10T12:17:59.846Z,2.65
2023-01-10T12:20:31.215Z,4.30
2023-01-10T12:23:07.922Z,2.60
2023-01-10T12:25:37.525Z,3.35
2023-01-10T12:28:04.725Z,2.95
2023-01-10T12:30:43.619Z,1.70
2023-01-10T12:33:21.411Z,2.03
2023-01-10T12:35:58.975Z,3.50
2023-01-10T12:39:05.160Z,1.85
2023-01-10T12:41:53.047Z,4.18
2023-01-10T12:44:24.714Z,3.65
2023-01-10T12:47:23.641Z,3.53
2023-01-10T12:50:17.002Z,2.17
2023-01-10T12:52:53.791Z,1.95
2023-01-10T12:55:23.622Z,2.63
2023-01-10T12:58:00.176Z,3.17
2023-01-10T13:00:32.812Z,2.35
2023-01-10T13:03:06.095Z,2.67
2023-01-10T13:05:33.068Z,4.47
2023-01-10T13:08:04.147Z,2.25
2023-01-10T13:10:31.913Z,3.92
2023-01-10T13:13:15.086Z,2.90
2023-01-10T13:15:48.053Z,2.35
2023-01-10T13:18:30.283Z,2.85
2023-01-10T13:21:13.621Z,2.20
2023-01-10T13:23:49.943Z,4.47
2023-01-10T13:29:17.583Z,2.45
2023-01-10T13:31:44.766Z,3.35
2023-01-10T13:34:16.489Z,4.55
2023-01-10T13:36:51.243Z,1.67
2023-01-10T13:39:37.070Z,3.15
2023-01-10T13:42:22.622Z,2.70
2023-01-10T13:45:01.836Z,3.47
2023-01-10T13:47:44.526Z,2.95
2023-01-10T13:50:23.414Z,2.85
2023-01-10T13:52:51.209Z,3.03
2023-01-10T13:55:32.747Z,3.08
2023-01-10T13:58:01.531Z,2.40
2023-01-10T14:00:53.304Z,3.10
2023-01-10T14:03:42.407Z,1.80
2023-01-10T14:06:29.581Z,2.53
2023-01-10T14:09:02.014Z,2.33
2023-01-10T14:11:46.013Z,2.72
2023-01-10T14:14:31.202Z,2.75
2023-01-10T14:17:10.172Z,2.42
2023-01-10T14:19:37.756Z,4.72
2023-01-10T14:22:04.687Z,2.40
2023-01-10T14:24:59.091Z,2.63
2023-01-10T14:27:34.491Z,3.33
2023-01-10T14:30:02.908Z,3.20
2023-01-10T14:32:37.738Z,2.67
2023-01-10T14:35:16.771Z,3.05
2023-01-10T14:37:53.087Z,2.92
2023-01-10T14:40:28.448Z,4.43
2023-01-10T14:42:58.582Z,2.97
2023-01-10T14:45:33.899Z,4.85
2023-01-10T14:48:17.333Z,2.67
2023-01-10T14:50:44.398Z,2.55
2023-01-10T14:53:27.409Z,2.60
2023-01-10T14:55:54.254Z,3.75
2023-01-10T14:58:22.739Z,2.63
2023-01-10T15:00:51.248Z,1.70
2023-01-10T15:03:20.558Z,2.58
2023-01-10T15:05:57.408Z,2.55
2023-01-10T15:08:25.628Z,1.50
2023-01-10T15:10:57.742Z,2.47
2023-01-10T15:13:28.306Z,2.75
2023-01-10T15:15:56.426Z,2.67
2023-01-10T15:18:38.723Z,2.65
2023-01-10T15:21:06.539Z,3.75
2023-01-10T15:23:39.106Z,2.80
2023-01-10T15:26:14.964Z,2.33
2023-01-10T15:28:42.871Z,4.97
2023-01-10T15:31:11.441Z,3.47
2023-01-10T15:33:42.673Z,2.35
2023-01-10T15:36:17.632Z,2.22
2023-01-10T15:38:46.788Z,2.10
2023-01-10T15:41:20.494Z,3.40
2023-01-10T15:43:50.033Z,2.97
2023-01-10T15:46:26.603Z,2.80
2023-01-10T15:49:04.415Z,2.33
2023-01-10T15:51:37.497Z,2.63
2023-01-10T15:54:19.684Z,3.30
2023-01-10T15:57:06.583Z,2.78
2023-01-10T15:59:46.126Z,3.85
2023-01-10T16:02:16.707Z,3.67
2023-01-10T16:04:44.992Z,2.67
2023-01-10T16:07:27.647Z,2.88
2023-01-10T16:10:07.877Z,1.77
2023-01-10T16:12:59.091Z,4.78
2023-01-10T16:15:28.985Z,3.58
2023-01-10T16:17:56.593Z,4.13
2023-01-10T16:20:31.741Z,3.15
2023-01-10T16:22:59.031Z,3.03
2023-01-10T16:25:32.957Z,3.10
2023-01-10T16:28:00.215Z,3.05
2023-01-10T16:30:32.548Z,2.63
2023-01-10T16:33:08.818Z,2.80
2023-01-10T16:35:35.711Z,3.00
2023-01-10T16:38:03.755Z,2.72
2023-01-10T16:40:37.377Z,4.70
2023-01-10T16:43:21.288Z,4.32
2023-01-10T16:45:50.607Z,2.33
2023-01-10T16:48:19.364Z,4.65
2023-01-10T16:50:47.527Z,3.15
2023-01-10T16:53:17.059Z,3.50
2023-01-10T16:55:52.539Z,2.72
2023-01-10T16:58:20.790Z,3.30
2023-01-10T17:00:50.275Z,3.10
2023-01-10T17:03:25.794Z,3.05
2023-01-10T17:05:52.627Z,4.15
2023-01-10T17:08:24.474Z,3.47
2023-01-10T17:10:56.190Z,2.50
2023-01-10T17:13:29.168Z,3.03
2023-01-10T17:15:56.153Z,2.53
2023-01-10T17:18:24.919Z,1.45
2023-01-10T17:20:52.433Z,2.20
2023-01-10T17:23:19.911Z,2.80
2023-01-10T17:25:49.616Z,2.15
2023-01-10T17:28:19.309Z,2.30
2023-01-10T17:30:46.227Z,2.83
2023-01-10T17:33:13.100Z,1.90
2023-01-10T17:35:44.551Z,2.33
2023-01-10T17:38:14.472Z,2.03
2023-01-10T17:40:47.446Z,4.32
2023-01-10T17:43:15.785Z,2.97
2023-01-10T17:45:44.991Z,2.75
2023-01-10T17:48:15.924Z,1.88
2023-01-10T17:50:57.624Z,3.28
2023-01-10T17:53:24.957Z,2.08
2023-01-10T17:55:52.510Z,1.75
2023-01-10T17:58:20.360Z,2.50
2023-01-10T18:00:48.745Z,1.67
2023-01-10T18:03:16.442Z,2.53
2023-01-10T18:05:54.613Z,2.80
2023-01-10T18:08:21.995Z,1.90
2023-01-10T18:10:49.600Z,2.42
2023-01-10T18:13:18.996Z,1.40
2023-01-10T18:15:48.254Z,3.08
2023-01-10T18:18:16.688Z,3.85
2023-01-10T18:20:44.976Z,4.55
2023-01-10T18:23:22.589Z,2.70
2023-01-10T18:25:56.726Z,2.78
2023-01-10T18:28:39.519Z,3.00
2023-01-10T18:31:16.533Z,4.80
2023-01-10T18:33:44.437Z,4.32
2023-01-10T18:36:18.160Z,5.93
2023-01-10T18:38:48.264Z,4.75
2023-01-10T18:41:16.164Z,3.97
2023-01-10T18:43:42.936Z,3.53
2023-01-10T18:46:13.160Z,3.75
2023-01-10T18:48:40.154Z,4.68
2023-01-10T18:51:08.827Z,3.78
2023-01-10T18:53:35.721Z,4.10
2023-01-10T18:56:04.810Z,3.47
2023-01-10T18:58:35.237Z,3.70
2023-01-10T19:01:09.602Z,3.55
2023-01-10T19:03:36.864Z,4.65
2023-01-10T19:06:05.880Z,3.42
2023-01-10T19:08:32.951Z,2.85
2023-01-10T19:11:12.864Z,3.20
2023-01-10T19:13:41.099Z,3.67
2023-01-10T19:16:18.150Z,5.03
2023-01-10T19:18:49.572Z,3.88
2023-01-10T19:21:16.435Z,4.28
2023-01-10T19:23:48.984Z,3.67
2023-01-10T19:26:16.190Z,3.55
2023-01-10T19:28:44.323Z,4.18
2023-01-10T19:31:18.914Z,4.82
2023-01-10T19:33:47.642Z,2.75
2023-01-10T19:36:15.739Z,3.67
2023-01-10T19:38:42.982Z,5.80
2023-01-10T19:41:10.440Z,4.20
2023-01-10T19:43:37.282Z,4.30
2023-01-10T19:46:08.273Z,3.90
2023-01-10T19:48:38.460Z,4.00
2023-01-10T19:51:07.418Z,3.40
2023-01-10T19:53:40.512Z,4.00
2023-01-10T19:56:09.858Z,4.25
2023-01-10T19:58:38.299Z,4.47
2023-01-10T20:01:09.975Z,3.55
2023-01-10T20:03:37.948Z,5.43
2023-01-10T20:06:06.161Z,3.88
2023-01-10T20:08:32.951Z,3.92
2023-01-10T20:11:06.797Z,4.40
2023-01-10T20:13:36.179Z,4.43
2023-01-10T20:16:06.712Z,3.47
2023-01-10T20:18:33.541Z,5.07
2023-01-10T20:21:07.871Z,3.80
2023-01-10T20:23:36.229Z,3.60
2023-01-10T20:26:06.802Z,3.47
2023-01-10T20:28:34.202Z,3.20
2023-01-10T20:31:01.588Z,4.18
2023-01-10T20:33:29.049Z,4.63
2023-01-10T20:36:01.437Z,2.95
2023-01-10T20:38:28.953Z,3.42
2023-01-10T20:40:59.844Z,3.53
2023-01-10T20:43:27.352Z,3.92
2023-01-10T20:45:54.777Z,3.90
2023-01-10T20:48:22.006Z,3.67
2023-01-10T20:50:49.640Z,3.75
2023-01-10T20:53:16.465Z,3.65
2023-01-10T20:55:46.829Z,3.38
2023-01-10T20:58:17.617Z,4.32
2023-01-10T21:00:44.587Z,4.13
2023-01-10T21:03:11.478Z,3.33
2023-01-10T21:05:38.860Z,3.92
2023-01-10T21:08:05.629Z,3.97
2023-01-10T21:10:32.411Z,3.60
2023-01-10T21:12:59.408Z,2.97
2023-01-10T21:15:26.231Z,3.40
2023-01-10T21:17:53.144Z,5.47
2023-01-10T21:20:20.388Z,4.00
2023-01-10T21:22:47.265Z,3.35
2023-01-10T21:25:14.258Z,4.35
2023-01-10T21:27:41.056Z,4.38
2023-01-10T21:30:09.155Z,3.00
2023-01-10T21:32:35.968Z,6.18
2023-01-10T21:35:02.862Z,3.13
2023-01-10T21:37:29.811Z,5.20
2023-01-10T21:39:56.884Z,4.78
2023-01-10T21:42:37.930Z,3.10
2023-01-10T21:45:06.963Z,3.30
2023-01-10T21:47:35.819Z,3.45
2023-01-10T21:50:03.736Z,2.78
2023-01-10T21:52:30.800Z,5.88
2023-01-10T21:54:57.872Z,3.38
2023-01-10T21:57:25.659Z,2.78
2023-01-10T21:59:53.359Z,4.40
2023-01-10T22:02:22.020Z,3.05
2023-01-10T22:04:50.833Z,3.50
2023-01-10T22:07:21.582Z,4.32
2023-01-10T22:09:50.628Z,3.80
2023-01-10T22:12:18.841Z,4.10
2023-01-10T22:14:46.187Z,4.43
2023-01-10T22:17:13.877Z,2.80
2023-01-10T22:19:41.113Z,5.40
2023-01-10T22:22:08.723Z,4.13
2023-01-10T22:24:35.735Z,4.80
2023-01-10T22:27:03.047Z,3.13
2023-01-10T22:29:29.903Z,5.00
2023-01-10T22:31:57.301Z,3.63
2023-01-10T22:34:24.143Z,3.65
2023-01-10T22:36:50.937Z,4.25
2023-01-10T22:39:17.797Z,3.63
2023-01-10T22:41:44.597Z,4.43
2023-01-10T22:44:23.276Z,3.97
2023-01-10T22:46:51.689Z,3.17
2023-01-10T22:49:18.630Z,2.75
2023-01-10T22:51:45.475Z,3.17
2023-01-10T22:54:15.271Z,3.67
2023-01-10T22:56:43.129Z,2.72
2023-01-10T22:59:09.976Z,4.53
2023-01-10T23:01:36.890Z,4.25
2023-01-10T23:04:04.142Z,3.88
2023-01-10T23:06:31.179Z,2.95
2023-01-10T23:08:58.225Z,4.95
2023-01-10T23:11:25.197Z,3.05
2023-01-10T23:13:51.984Z,3.70
2023-01-10T23:16:22.353Z,4.10
2023-01-10T23:18:49.760Z,2.90
2023-01-10T23:21:17.165Z,3.75
2023-01-10T23:23:43.942Z,2.97
2023-01-10T23:26:12.665Z,3.88
2023-01-10T23:28:48.316Z,3.20
2023-01-10T23:31:19.271Z,3.72
2023-01-10T23:33:46.696Z,3.65
2023-01-10T23:36:13.683Z,3.20
2023-01-10T23:38:40.629Z,3.72
2023-01-10T23:41:07.558Z,3.88
2023-01-10T23:43:34.456Z,3.08
2023-01-10T23:46:02.290Z,2.72
2023-01-10T23:48:30.004Z,2.85
2023-01-10T23:50:57.215Z,3.50
2023-01-10T23:53:24.251Z,3.53
2023-01-10T23:55:51.344Z,2.05
2023-01-10T23:58:18.175Z,3.47
